F/V Renaissance II — FMEW — position and weather

sailwx.info

Track history (hours):
 
Tides and Currents Weather Stations Pressure Air Temp Water Temp Dewpoint Dewpoint Depression Visibility Wind Speed Wind Dir Waves Ship Positions

F/V Renaissance II

Last reported at 2017-Jun-25 10:00 UTC. Time now 2017-Jun-25 10:22 UTC.
Position N 47°02' W 002°30'.

Length 18 m.

Type: Fishing. MMSI: 228216600.

Date/timePositionNaut miles runAvg speedWind from/ knotsBaromVisibWave heightAir tempDewpointWater temp
2017-Jun-25 10:00N 47°02' W 002°30'1 2.4
2017-Jun-25 09:29N 47°03' W 002°29'0 1.0
2017-Jun-25 09:00N 47°03' W 002°29'1 2.5
2017-Jun-25 08:25N 47°02' W 002°29'0 0.7
2017-Jun-25 08:00N 47°02' W 002°30'1 1.0
2017-Jun-25 07:25N 47°03' W 002°29'1 1.3
2017-Jun-25 07:01N 47°03' W 002°29'3 6.1
2017-Jun-25 06:29N 47°04' W 002°24'1 1.4
2017-Jun-25 06:00N 47°04' W 002°24'1 2.6
2017-Jun-25 05:30N 47°05' W 002°23'4 6.6
2017-Jun-25 04:51N 47°02' W 002°27'25 5.8
2017-Jun-25 00:28N 46°40' W 002°10'3 6.3
2017-Jun-25 00:00N 46°38' W 002°07'3 6.4
2017-Jun-24 23:29N 46°35' W 002°04'3 6.5
2017-Jun-24 23:00N 46°33' W 002°01'3 6.7
2017-Jun-24 22:30N 46°30' W 001°59'3 6.6
2017-Jun-24 22:01N 46°27' W 001°56'3 6.7
2017-Jun-24 21:31N 46°24' W 001°54'3 7.0
2017-Jun-24 21:01N 46°21' W 001°51'4 7.1
2017-Jun-24 20:31N 46°18' W 001°49'4 7.0
2017-Jun-24 19:56N 46°15' W 001°47'4 0.3
2017-Jun-24 04:21N 46°10' W 001°48'3 9.8
2017-Jun-24 04:00N 46°14' W 001°48'5 9.9
2017-Jun-24 03:31N 46°18' W 001°48'5 9.9
2017-Jun-24 03:01N 46°23' W 001°47'6 0.3
2017-Jun-23 06:25N 46°30' W 001°47'0 0.0
2017-Jun-23 06:00N 46°30' W 001°47'0 0.0
2017-Jun-23 05:30N 46°30' W 001°47'0 0.0
2017-Jun-23 05:00N 46°30' W 001°47'0 0.0
2017-Jun-23 04:30N 46°30' W 001°47'0 0.0
2017-Jun-23 04:00N 46°30' W 001°47'0 0.0
2017-Jun-23 03:30N 46°30' W 001°47'0 0.0
2017-Jun-23 03:00N 46°30' W 001°47'0 0.0
2017-Jun-23 02:30N 46°30' W 001°47'0 0.0
2017-Jun-23 02:00N 46°30' W 001°47'0 0.0
2017-Jun-23 01:30N 46°30' W 001°47'0 0.0
2017-Jun-23 01:00N 46°30' W 001°47'0 0.0
2017-Jun-23 00:30N 46°30' W 001°47'0 0.0
2017-Jun-23 00:00N 46°30' W 001°47'0 0.0
2017-Jun-22 23:30N 46°30' W 001°47'0 0.0
2017-Jun-22 23:00N 46°30' W 001°47'0 0.0
2017-Jun-22 22:30N 46°30' W 001°47'0 0.0
2017-Jun-22 22:00N 46°30' W 001°47'0 0.0
2017-Jun-22 21:30N 46°30' W 001°47'0 0.0
2017-Jun-22 21:00N 46°30' W 001°47'0 0.0
2017-Jun-22 20:30N 46°30' W 001°47'0 0.0
2017-Jun-22 20:00N 46°30' W 001°47'0 0.0
2017-Jun-22 19:30N 46°30' W 001°47'0 0.0
2017-Jun-22 19:00N 46°30' W 001°47'0 0.0
2017-Jun-22 18:30N 46°30' W 001°47'0 0.0
2017-Jun-22 18:00N 46°30' W 001°47'0 0.0
2017-Jun-22 17:30N 46°30' W 001°47'0 0.0
2017-Jun-22 17:00N 46°30' W 001°47'2 4.6
2017-Jun-22 16:30N 46°28' W 001°47'3 6.3
2017-Jun-22 16:00N 46°24' W 001°46'0 0.8
2017-Jun-22 15:30N 46°25' W 001°46'1 3.0
2017-Jun-22 15:00N 46°25' W 001°48'2 4.4
2017-Jun-22 14:30N 46°27' W 001°47'2 2.4
2017-Jun-22 13:30N 46°30' W 001°47'0 0.0
2017-Jun-22 13:00N 46°30' W 001°47'0 0.0
2017-Jun-22 12:30N 46°30' W 001°47'0 0.0
2017-Jun-22 12:00N 46°30' W 001°47'0 0.0
2017-Jun-22 11:30N 46°30' W 001°47'0 0.0
2017-Jun-22 11:00N 46°30' W 001°47'0 0.0
2017-Jun-22 10:30N 46°30' W 001°47'0 0.0
2017-Jun-22 10:00N 46°30' W 001°47'0 0.0
2017-Jun-22 09:30N 46°30' W 001°47'0 0.0
2017-Jun-22 09:00N 46°30' W 001°47'0 0.0
2017-Jun-22 08:30N 46°30' W 001°47'0 0.0
2017-Jun-22 08:00N 46°30' W 001°47'0 0.0
2017-Jun-22 07:30N 46°30' W 001°47'0 0.0
2017-Jun-22 07:00N 46°30' W 001°47'0 0.0
2017-Jun-22 06:30N 46°30' W 001°47'0 0.0
2017-Jun-22 06:00N 46°30' W 001°47'0 0.0
2017-Jun-22 05:30N 46°30' W 001°47'0 0.0
2017-Jun-22 05:00N 46°30' W 001°47'0 0.0
2017-Jun-22 04:30N 46°30' W 001°47'0 0.0
2017-Jun-22 04:00N 46°30' W 001°47'0 0.0
2017-Jun-22 03:30N 46°30' W 001°47'0 0.0
2017-Jun-22 03:00N 46°30' W 001°47'0 0.0
2017-Jun-22 02:30N 46°30' W 001°47'0 0.0
2017-Jun-22 02:00N 46°30' W 001°47'0 0.0
2017-Jun-22 01:30N 46°30' W 001°47'0 0.0
2017-Jun-22 01:00N 46°30' W 001°47'0 0.0
2017-Jun-22 00:30N 46°30' W 001°47'0 0.0
2017-Jun-22 00:00N 46°30' W 001°47'0 0.0
2017-Jun-21 23:30N 46°30' W 001°47'0 0.0
2017-Jun-21 23:00N 46°30' W 001°47'0 0.0
2017-Jun-21 22:30N 46°30' W 001°47'0 0.3
2017-Jun-21 22:00N 46°30' W 001°47'1 2.1
2017-Jun-21 21:30N 46°29' W 001°47'4 8.7
2017-Jun-21 21:00N 46°30' W 001°53'5 9.7
2017-Jun-21 20:30N 46°32' W 001°59'5 9.7
2017-Jun-21 20:00N 46°35' W 002°05'5 9.7
2017-Jun-21 19:30N 46°37' W 002°11'5 9.7
2017-Jun-21 19:00N 46°39' W 002°17'5 9.9
2017-Jun-21 18:30N 46°42' W 002°24'5 9.8
2017-Jun-21 18:00N 46°45' W 002°29'5 9.9
2017-Jun-21 17:30N 46°48' W 002°35'510.2
2017-Jun-21 17:00N 46°51' W 002°41'2 4.7
2017-Jun-21 16:30N 46°52' W 002°44'0 0.7
2017-Jun-21 16:00N 46°53' W 002°44'0 0.3
2017-Jun-21 15:30N 46°53' W 002°44'0 0.4
2017-Jun-21 14:56N 46°53' W 002°45'0 0.3
2017-Jun-21 14:00N 46°53' W 002°45'4 7.5
2017-Jun-21 13:27N 46°55' W 002°50'2 3.6
2017-Jun-21 13:00N 46°56' W 002°51'1 1.3
2017-Jun-21 12:30N 46°56' W 002°52'0 0.7
2017-Jun-21 11:56N 46°56' W 002°53'2 4.4
2017-Jun-21 11:30N 46°56' W 002°56'1 1.2
2017-Jun-21 11:00N 46°56' W 002°56'0 0.1
2017-Jun-21 10:30N 46°56' W 002°56'4 8.6
2017-Jun-21 10:00N 46°58' W 002°50'1 1.2
2017-Jun-21 09:30N 46°57' W 002°51'2 3.5
2017-Jun-21 09:00N 46°56' W 002°53'2 3.1
2017-Jun-21 08:30N 46°57' W 002°50'3 4.8
2017-Jun-21 07:58N 46°56' W 002°47'1 1.4
2017-Jun-21 07:30N 46°55' W 002°46'1 1.1
2017-Jun-21 07:00N 46°55' W 002°47'1 1.5
2017-Jun-21 06:30N 46°55' W 002°46'1 1.3
2017-Jun-21 06:00N 46°55' W 002°45'4 4.9
2017-Jun-21 05:12N 46°52' W 002°42'6 9.8
2017-Jun-21 04:38N 46°48' W 002°36'1 9.9
2017-Jun-21 04:30N 46°47' W 002°34'510.1
2017-Jun-21 03:59N 46°44' W 002°29'5 9.6
2017-Jun-21 03:30N 46°41' W 002°23'5 9.5
2017-Jun-21 03:00N 46°39' W 002°17'5 9.6
2017-Jun-21 02:30N 46°37' W 002°11'510.1
2017-Jun-21 02:00N 46°35' W 002°04'5 9.6
2017-Jun-21 01:30N 46°32' W 001°59'510.1
2017-Jun-21 01:00N 46°29' W 001°53'4 7.3
2017-Jun-21 00:30N 46°29' W 001°47'1 1.0
2017-Jun-21 00:00N 46°30' W 001°47'0 0.0
2017-Jun-20 23:30N 46°30' W 001°47'0 0.0
2017-Jun-20 23:00N 46°30' W 001°47'0 0.0
2017-Jun-20 22:30N 46°30' W 001°47'0 0.0
2017-Jun-20 22:00N 46°30' W 001°47'0 0.0
2017-Jun-20 21:30N 46°30' W 001°47'0 0.0
2017-Jun-20 21:00N 46°30' W 001°47'0 0.0
2017-Jun-20 20:30N 46°30' W 001°47'0 0.0
2017-Jun-20 20:00N 46°30' W 001°47'0 0.0
2017-Jun-20 19:30N 46°30' W 001°47'0 0.0
2017-Jun-20 19:00N 46°30' W 001°47'0 0.0
2017-Jun-20 18:30N 46°30' W 001°47'0 0.0
2017-Jun-20 18:00N 46°30' W 001°47'0 0.0
2017-Jun-20 17:30N 46°30' W 001°47'0 0.0
2017-Jun-20 17:00N 46°30' W 001°47'0 0.0
2017-Jun-20 16:30N 46°30' W 001°47'0 0.0
2017-Jun-20 16:00N 46°30' W 001°47'0 0.0
2017-Jun-20 15:30N 46°30' W 001°47'0 0.1
2017-Jun-20 15:00N 46°30' W 001°48'5 4.9
2017-Jun-20 14:00N 46°25' W 001°47'5 9.7
2017-Jun-20 13:30N 46°20' W 001°47'5 9.6
2017-Jun-20 13:00N 46°15' W 001°46'5 9.9
2017-Jun-20 12:30N 46°10' W 001°46'5 9.7
2017-Jun-20 12:00N 46°05' W 001°46'5 8.8
2017-Jun-20 11:30N 46°04' W 001°40'3 5.4
2017-Jun-20 11:00N 46°04' W 001°36'1 2.1
2017-Jun-20 10:26N 46°03' W 001°38'2 3.8
2017-Jun-20 09:57N 46°05' W 001°37'1 2.5
2017-Jun-20 09:26N 46°06' W 001°38'1 1.3
2017-Jun-20 09:00N 46°06' W 001°38'1 1.5
2017-Jun-20 08:24N 46°06' W 001°38'2 1.7
2017-Jun-20 06:59N 46°03' W 001°38'2 3.0
2017-Jun-20 06:26N 46°04' W 001°36'0 0.7
2017-Jun-20 05:59N 46°04' W 001°36'0 0.2
2017-Jun-20 05:30N 46°04' W 001°36'2 3.0
2017-Jun-20 05:00N 46°04' W 001°38'1 1.5
2017-Jun-20 04:29N 46°03' W 001°37'1 2.6
2017-Jun-20 04:00N 46°03' W 001°38'2 4.2
2017-Jun-20 03:28N 46°05' W 001°37'3 5.4
2017-Jun-20 03:00N 46°07' W 001°38'3 5.3
2017-Jun-20 02:30N 46°10' W 001°40'3 5.5
2017-Jun-20 02:00N 46°12' W 001°41'3 5.8
2017-Jun-20 01:30N 46°15' W 001°42'3 5.8
2017-Jun-20 01:00N 46°18' W 001°43'3 5.6
2017-Jun-20 00:30N 46°21' W 001°44'3 5.6
2017-Jun-20 00:00N 46°23' W 001°45'3 5.4
2017-Jun-19 23:30N 46°26' W 001°46'3 5.3
2017-Jun-19 23:00N 46°29' W 001°47'1 2.6
2017-Jun-19 22:30N 46°30' W 001°47'2 4.1
2017-Jun-19 22:00N 46°28' W 001°47'5 9.8
2017-Jun-19 21:30N 46°23' W 001°47'5 9.7
2017-Jun-19 21:00N 46°18' W 001°48'6 9.8
2017-Jun-19 20:23N 46°12' W 001°48'8 9.7
2017-Jun-19 19:35N 46°04' W 001°49'1 9.7
2017-Jun-19 19:27N 46°03' W 001°49'3 7.0
2017-Jun-19 19:00N 45°60' W 001°49'0 0.6
2017-Jun-19 18:28N 45°60' W 001°50'2 3.3
2017-Jun-19 18:00N 45°59' W 001°52'3 1.9
2017-Jun-19 16:32N 45°56' W 001°54'0 2.0
2017-Jun-19 16:30N 45°56' W 001°54'12 1.6
2017-Jun-19 08:31N 45°59' W 002°11'010.0
2017-Jun-19 08:28N 45°59' W 002°12'2 3.4
2017-Jun-19 07:53N 46°00' W 002°14'1 2.6
2017-Jun-19 07:30N 45°60' W 002°13'2 3.7
2017-Jun-19 07:00N 46°00' W 002°11'15 4.5
2017-Jun-19 03:41N 46°13' W 001°59'3 9.5
2017-Jun-19 03:21N 46°16' W 001°57'3 9.6
2017-Jun-19 03:00N 46°19' W 001°55'5 9.6
2017-Jun-19 02:30N 46°23' W 001°52'40 1.9
2017-Jun-18 04:47N 46°43' W 002°42'30 3.4
2017-Jun-17 19:49N 46°23' W 002°10'3 9.3
2017-Jun-17 19:30N 46°23' W 002°06'2 4.9
2017-Jun-17 19:00N 46°24' W 002°02'0 0.7
2017-Jun-17 18:30N 46°24' W 002°02'1 2.3
2017-Jun-17 18:00N 46°25' W 002°04'2 3.7
2017-Jun-17 17:29N 46°23' W 002°06'3 5.9
2017-Jun-17 17:00N 46°21' W 002°09'0 0.4
2017-Jun-17 16:26N 46°21' W 002°09'1 2.2
2017-Jun-17 16:00N 46°21' W 002°10'3 5.1
2017-Jun-17 15:27N 46°18' W 002°08'1 1.5
2017-Jun-17 14:37N 46°17' W 002°09'2 3.9
2017-Jun-17 13:59N 46°17' W 002°13'6 2.1
2017-Jun-17 11:17N 46°14' W 002°19'0 0.3
2017-Jun-17 10:55N 46°14' W 002°19'1 2.0
2017-Jun-17 10:30N 46°15' W 002°19'0 0.7
2017-Jun-17 09:57N 46°15' W 002°19'3 1.1
2017-Jun-17 07:01N 46°18' W 002°17'1 9.5
2017-Jun-17 06:53N 46°19' W 002°15'4 9.4
2017-Jun-17 06:30N 46°20' W 002°10'5 9.5
2017-Jun-17 06:00N 46°23' W 002°04'5 9.5
2017-Jun-17 05:30N 46°25' W 001°58'5 9.4
2017-Jun-17 05:00N 46°27' W 001°52'24 0.6
2017-Jun-15 13:25N 46°18' W 002°25'1 2.5
2017-Jun-15 12:59N 46°19' W 002°26'0 0.4
2017-Jun-15 12:21N 46°19' W 002°26'1 1.1
2017-Jun-15 11:17N 46°20' W 002°25'310.0
2017-Jun-15 11:00N 46°21' W 002°21'6 7.8
2017-Jun-15 10:15N 46°26' W 002°16'0 0.4
2017-Jun-15 10:01N 46°26' W 002°16'  
Track history (hours):
 
Tides and Currents Weather Stations Pressure Air Temp Water Temp Dewpoint Dewpoint Depression Visibility Wind Speed Wind Dir Waves Ship Positions

F/V Renaissance II

Last reported at 2017-Jun-25 10:00 UTC. Time now 2017-Jun-25 10:22 UTC.
Position N 47°02' W 002°30'.

Length 18 m.

Type: Fishing. MMSI: 228216600.

Date/timePositionNaut miles runAvg speedWind from/ knotsBaromVisibWave heightAir tempDewpointWater temp
2017-Jun-25 10:00N 47°02' W 002°30'1 2.4
2017-Jun-25 09:29N 47°03' W 002°29'0 1.0
2017-Jun-25 09:00N 47°03' W 002°29'1 2.5
2017-Jun-25 08:25N 47°02' W 002°29'0 0.7
2017-Jun-25 08:00N 47°02' W 002°30'1 1.0
2017-Jun-25 07:25N 47°03' W 002°29'1 1.3
2017-Jun-25 07:01N 47°03' W 002°29'3 6.1
2017-Jun-25 06:29N 47°04' W 002°24'1 1.4
2017-Jun-25 06:00N 47°04' W 002°24'1 2.6
2017-Jun-25 05:30N 47°05' W 002°23'4 6.6
2017-Jun-25 04:51N 47°02' W 002°27'25 5.8
2017-Jun-25 00:28N 46°40' W 002°10'3 6.3
2017-Jun-25 00:00N 46°38' W 002°07'3 6.4
2017-Jun-24 23:29N 46°35' W 002°04'3 6.5
2017-Jun-24 23:00N 46°33' W 002°01'3 6.7
2017-Jun-24 22:30N 46°30' W 001°59'3 6.6
2017-Jun-24 22:01N 46°27' W 001°56'3 6.7
2017-Jun-24 21:31N 46°24' W 001°54'3 7.0
2017-Jun-24 21:01N 46°21' W 001°51'4 7.1
2017-Jun-24 20:31N 46°18' W 001°49'4 7.0
2017-Jun-24 19:56N 46°15' W 001°47'4 0.3
2017-Jun-24 04:21N 46°10' W 001°48'3 9.8
2017-Jun-24 04:00N 46°14' W 001°48'5 9.9
2017-Jun-24 03:31N 46°18' W 001°48'5 9.9
2017-Jun-24 03:01N 46°23' W 001°47'6 0.3
2017-Jun-23 06:25N 46°30' W 001°47'0 0.0
2017-Jun-23 06:00N 46°30' W 001°47'0 0.0
2017-Jun-23 05:30N 46°30' W 001°47'0 0.0
2017-Jun-23 05:00N 46°30' W 001°47'0 0.0
2017-Jun-23 04:30N 46°30' W 001°47'0 0.0
2017-Jun-23 04:00N 46°30' W 001°47'0 0.0
2017-Jun-23 03:30N 46°30' W 001°47'0 0.0
2017-Jun-23 03:00N 46°30' W 001°47'0 0.0
2017-Jun-23 02:30N 46°30' W 001°47'0 0.0
2017-Jun-23 02:00N 46°30' W 001°47'0 0.0
2017-Jun-23 01:30N 46°30' W 001°47'0 0.0
2017-Jun-23 01:00N 46°30' W 001°47'0 0.0
2017-Jun-23 00:30N 46°30' W 001°47'0 0.0
2017-Jun-23 00:00N 46°30' W 001°47'0 0.0
2017-Jun-22 23:30N 46°30' W 001°47'0 0.0
2017-Jun-22 23:00N 46°30' W 001°47'0 0.0
2017-Jun-22 22:30N 46°30' W 001°47'0 0.0
2017-Jun-22 22:00N 46°30' W 001°47'0 0.0
2017-Jun-22 21:30N 46°30' W 001°47'0 0.0
2017-Jun-22 21:00N 46°30' W 001°47'0 0.0
2017-Jun-22 20:30N 46°30' W 001°47'0 0.0
2017-Jun-22 20:00N 46°30' W 001°47'0 0.0
2017-Jun-22 19:30N 46°30' W 001°47'0 0.0
2017-Jun-22 19:00N 46°30' W 001°47'0 0.0
2017-Jun-22 18:30N 46°30' W 001°47'0 0.0
2017-Jun-22 18:00N 46°30' W 001°47'0 0.0
2017-Jun-22 17:30N 46°30' W 001°47'0 0.0
2017-Jun-22 17:00N 46°30' W 001°47'2 4.6
2017-Jun-22 16:30N 46°28' W 001°47'3 6.3
2017-Jun-22 16:00N 46°24' W 001°46'0 0.8
2017-Jun-22 15:30N 46°25' W 001°46'1 3.0
2017-Jun-22 15:00N 46°25' W 001°48'2 4.4
2017-Jun-22 14:30N 46°27' W 001°47'2 2.4
2017-Jun-22 13:30N 46°30' W 001°47'0 0.0
2017-Jun-22 13:00N 46°30' W 001°47'0 0.0
2017-Jun-22 12:30N 46°30' W 001°47'0 0.0
2017-Jun-22 12:00N 46°30' W 001°47'0 0.0
2017-Jun-22 11:30N 46°30' W 001°47'0 0.0
2017-Jun-22 11:00N 46°30' W 001°47'0 0.0
2017-Jun-22 10:30N 46°30' W 001°47'0 0.0
2017-Jun-22 10:00N 46°30' W 001°47'0 0.0
2017-Jun-22 09:30N 46°30' W 001°47'0 0.0
2017-Jun-22 09:00N 46°30' W 001°47'0 0.0
2017-Jun-22 08:30N 46°30' W 001°47'0 0.0
2017-Jun-22 08:00N 46°30' W 001°47'0 0.0
2017-Jun-22 07:30N 46°30' W 001°47'0 0.0
2017-Jun-22 07:00N 46°30' W 001°47'0 0.0
2017-Jun-22 06:30N 46°30' W 001°47'0 0.0
2017-Jun-22 06:00N 46°30' W 001°47'0 0.0
2017-Jun-22 05:30N 46°30' W 001°47'0 0.0
2017-Jun-22 05:00N 46°30' W 001°47'0 0.0
2017-Jun-22 04:30N 46°30' W 001°47'0 0.0
2017-Jun-22 04:00N 46°30' W 001°47'0 0.0
2017-Jun-22 03:30N 46°30' W 001°47'0 0.0
2017-Jun-22 03:00N 46°30' W 001°47'0 0.0
2017-Jun-22 02:30N 46°30' W 001°47'0 0.0
2017-Jun-22 02:00N 46°30' W 001°47'0 0.0
2017-Jun-22 01:30N 46°30' W 001°47'0 0.0
2017-Jun-22 01:00N 46°30' W 001°47'0 0.0
2017-Jun-22 00:30N 46°30' W 001°47'0 0.0
2017-Jun-22 00:00N 46°30' W 001°47'0 0.0
2017-Jun-21 23:30N 46°30' W 001°47'0 0.0
2017-Jun-21 23:00N 46°30' W 001°47'0 0.0
2017-Jun-21 22:30N 46°30' W 001°47'0 0.3
2017-Jun-21 22:00N 46°30' W 001°47'1 2.1
2017-Jun-21 21:30N 46°29' W 001°47'4 8.7
2017-Jun-21 21:00N 46°30' W 001°53'5 9.7
2017-Jun-21 20:30N 46°32' W 001°59'5 9.7
2017-Jun-21 20:00N 46°35' W 002°05'5 9.7
2017-Jun-21 19:30N 46°37' W 002°11'5 9.7
2017-Jun-21 19:00N 46°39' W 002°17'5 9.9
2017-Jun-21 18:30N 46°42' W 002°24'5 9.8
2017-Jun-21 18:00N 46°45' W 002°29'5 9.9
2017-Jun-21 17:30N 46°48' W 002°35'510.2
2017-Jun-21 17:00N 46°51' W 002°41'2 4.7
2017-Jun-21 16:30N 46°52' W 002°44'0 0.7
2017-Jun-21 16:00N 46°53' W 002°44'0 0.3
2017-Jun-21 15:30N 46°53' W 002°44'0 0.4
2017-Jun-21 14:56N 46°53' W 002°45'0 0.3
2017-Jun-21 14:00N 46°53' W 002°45'4 7.5
2017-Jun-21 13:27N 46°55' W 002°50'2 3.6
2017-Jun-21 13:00N 46°56' W 002°51'1 1.3
2017-Jun-21 12:30N 46°56' W 002°52'0 0.7
2017-Jun-21 11:56N 46°56' W 002°53'2 4.4
2017-Jun-21 11:30N 46°56' W 002°56'1 1.2
2017-Jun-21 11:00N 46°56' W 002°56'0 0.1
2017-Jun-21 10:30N 46°56' W 002°56'4 8.6
2017-Jun-21 10:00N 46°58' W 002°50'1 1.2
2017-Jun-21 09:30N 46°57' W 002°51'2 3.5
2017-Jun-21 09:00N 46°56' W 002°53'2 3.1
2017-Jun-21 08:30N 46°57' W 002°50'3 4.8
2017-Jun-21 07:58N 46°56' W 002°47'1 1.4
2017-Jun-21 07:30N 46°55' W 002°46'1 1.1
2017-Jun-21 07:00N 46°55' W 002°47'1 1.5
2017-Jun-21 06:30N 46°55' W 002°46'1 1.3
2017-Jun-21 06:00N 46°55' W 002°45'4 4.9
2017-Jun-21 05:12N 46°52' W 002°42'6 9.8
2017-Jun-21 04:38N 46°48' W 002°36'1 9.9
2017-Jun-21 04:30N 46°47' W 002°34'510.1
2017-Jun-21 03:59N 46°44' W 002°29'5 9.6
2017-Jun-21 03:30N 46°41' W 002°23'5 9.5
2017-Jun-21 03:00N 46°39' W 002°17'5 9.6
2017-Jun-21 02:30N 46°37' W 002°11'510.1
2017-Jun-21 02:00N 46°35' W 002°04'5 9.6
2017-Jun-21 01:30N 46°32' W 001°59'510.1
2017-Jun-21 01:00N 46°29' W 001°53'4 7.3
2017-Jun-21 00:30N 46°29' W 001°47'1 1.0
2017-Jun-21 00:00N 46°30' W 001°47'0 0.0
2017-Jun-20 23:30N 46°30' W 001°47'0 0.0
2017-Jun-20 23:00N 46°30' W 001°47'0 0.0
2017-Jun-20 22:30N 46°30' W 001°47'0 0.0
2017-Jun-20 22:00N 46°30' W 001°47'0 0.0
2017-Jun-20 21:30N 46°30' W 001°47'0 0.0
2017-Jun-20 21:00N 46°30' W 001°47'0 0.0
2017-Jun-20 20:30N 46°30' W 001°47'0 0.0
2017-Jun-20 20:00N 46°30' W 001°47'0 0.0
2017-Jun-20 19:30N 46°30' W 001°47'0 0.0
2017-Jun-20 19:00N 46°30' W 001°47'0 0.0
2017-Jun-20 18:30N 46°30' W 001°47'0 0.0
2017-Jun-20 18:00N 46°30' W 001°47'0 0.0
2017-Jun-20 17:30N 46°30' W 001°47'0 0.0
2017-Jun-20 17:00N 46°30' W 001°47'0 0.0
2017-Jun-20 16:30N 46°30' W 001°47'0 0.0
2017-Jun-20 16:00N 46°30' W 001°47'0 0.0
2017-Jun-20 15:30N 46°30' W 001°47'0 0.1
2017-Jun-20 15:00N 46°30' W 001°48'5 4.9
2017-Jun-20 14:00N 46°25' W 001°47'5 9.7
2017-Jun-20 13:30N 46°20' W 001°47'5 9.6
2017-Jun-20 13:00N 46°15' W 001°46'5 9.9
2017-Jun-20 12:30N 46°10' W 001°46'5 9.7
2017-Jun-20 12:00N 46°05' W 001°46'5 8.8
2017-Jun-20 11:30N 46°04' W 001°40'3 5.4
2017-Jun-20 11:00N 46°04' W 001°36'1 2.1
2017-Jun-20 10:26N 46°03' W 001°38'2 3.8
2017-Jun-20 09:57N 46°05' W 001°37'1 2.5
2017-Jun-20 09:26N 46°06' W 001°38'1 1.3
2017-Jun-20 09:00N 46°06' W 001°38'1 1.5
2017-Jun-20 08:24N 46°06' W 001°38'2 1.7
2017-Jun-20 06:59N 46°03' W 001°38'2 3.0
2017-Jun-20 06:26N 46°04' W 001°36'0 0.7
2017-Jun-20 05:59N 46°04' W 001°36'0 0.2
2017-Jun-20 05:30N 46°04' W 001°36'2 3.0
2017-Jun-20 05:00N 46°04' W 001°38'1 1.5
2017-Jun-20 04:29N 46°03' W 001°37'1 2.6
2017-Jun-20 04:00N 46°03' W 001°38'2 4.2
2017-Jun-20 03:28N 46°05' W 001°37'3 5.4
2017-Jun-20 03:00N 46°07' W 001°38'3 5.3
2017-Jun-20 02:30N 46°10' W 001°40'3 5.5
2017-Jun-20 02:00N 46°12' W 001°41'3 5.8
2017-Jun-20 01:30N 46°15' W 001°42'3 5.8
2017-Jun-20 01:00N 46°18' W 001°43'3 5.6
2017-Jun-20 00:30N 46°21' W 001°44'3 5.6
2017-Jun-20 00:00N 46°23' W 001°45'3 5.4
2017-Jun-19 23:30N 46°26' W 001°46'3 5.3
2017-Jun-19 23:00N 46°29' W 001°47'1 2.6
2017-Jun-19 22:30N 46°30' W 001°47'2 4.1
2017-Jun-19 22:00N 46°28' W 001°47'5 9.8
2017-Jun-19 21:30N 46°23' W 001°47'5 9.7
2017-Jun-19 21:00N 46°18' W 001°48'6 9.8
2017-Jun-19 20:23N 46°12' W 001°48'8 9.7
2017-Jun-19 19:35N 46°04' W 001°49'1 9.7
2017-Jun-19 19:27N 46°03' W 001°49'3 7.0
2017-Jun-19 19:00N 45°60' W 001°49'0 0.6
2017-Jun-19 18:28N 45°60' W 001°50'2 3.3
2017-Jun-19 18:00N 45°59' W 001°52'3 1.9
2017-Jun-19 16:32N 45°56' W 001°54'0 2.0
2017-Jun-19 16:30N 45°56' W 001°54'12 1.6
2017-Jun-19 08:31N 45°59' W 002°11'010.0
2017-Jun-19 08:28N 45°59' W 002°12'2 3.4
2017-Jun-19 07:53N 46°00' W 002°14'1 2.6
2017-Jun-19 07:30N 45°60' W 002°13'2 3.7
2017-Jun-19 07:00N 46°00' W 002°11'15 4.5
2017-Jun-19 03:41N 46°13' W 001°59'3 9.5
2017-Jun-19 03:21N 46°16' W 001°57'3 9.6
2017-Jun-19 03:00N 46°19' W 001°55'5 9.6
2017-Jun-19 02:30N 46°23' W 001°52'40 1.9
2017-Jun-18 04:47N 46°43' W 002°42'30 3.4
2017-Jun-17 19:49N 46°23' W 002°10'3 9.3
2017-Jun-17 19:30N 46°23' W 002°06'2 4.9
2017-Jun-17 19:00N 46°24' W 002°02'0 0.7
2017-Jun-17 18:30N 46°24' W 002°02'1 2.3
2017-Jun-17 18:00N 46°25' W 002°04'2 3.7
2017-Jun-17 17:29N 46°23' W 002°06'3 5.9
2017-Jun-17 17:00N 46°21' W 002°09'0 0.4
2017-Jun-17 16:26N 46°21' W 002°09'1 2.2
2017-Jun-17 16:00N 46°21' W 002°10'3 5.1
2017-Jun-17 15:27N 46°18' W 002°08'1 1.5
2017-Jun-17 14:37N 46°17' W 002°09'2 3.9
2017-Jun-17 13:59N 46°17' W 002°13'6 2.1
2017-Jun-17 11:17N 46°14' W 002°19'0 0.3
2017-Jun-17 10:55N 46°14' W 002°19'1 2.0
2017-Jun-17 10:30N 46°15' W 002°19'0 0.7
2017-Jun-17 09:57N 46°15' W 002°19'3 1.1
2017-Jun-17 07:01N 46°18' W 002°17'1 9.5
2017-Jun-17 06:53N 46°19' W 002°15'4 9.4
2017-Jun-17 06:30N 46°20' W 002°10'5 9.5
2017-Jun-17 06:00N 46°23' W 002°04'5 9.5
2017-Jun-17 05:30N 46°25' W 001°58'5 9.4
2017-Jun-17 05:00N 46°27' W 001°52'24 0.6
2017-Jun-15 13:25N 46°18' W 002°25'1 2.5
2017-Jun-15 12:59N 46°19' W 002°26'0 0.4
2017-Jun-15 12:21N 46°19' W 002°26'1 1.1
2017-Jun-15 11:17N 46°20' W 002°25'310.0
2017-Jun-15 11:00N 46°21' W 002°21'6 7.8
2017-Jun-15 10:15N 46°26' W 002°16'0 0.4
2017-Jun-15 10:01N 46°26' W 002°16'  

Dump ship's entire track history